createdAt,value
2022-10-22T00:01:24.748Z,66.92
2022-10-22T00:03:52.898Z,66.83
2022-10-22T00:06:20.332Z,66.87
2022-10-22T00:08:47.607Z,66.89
2022-10-22T00:11:19.262Z,67.85
2022-10-22T00:13:52.206Z,68.19
2022-10-22T00:16:19.801Z,68.54
2022-10-22T00:18:46.900Z,69.74
2022-10-22T00:21:14.404Z,69.65
2022-10-22T00:23:44.051Z,71.16
2022-10-22T00:26:11.737Z,70.09
2022-10-22T00:28:39.417Z,69.56
2022-10-22T00:31:07.993Z,70.57
2022-10-22T00:33:35.248Z,71.84
2022-10-22T00:36:03.006Z,71.98
2022-10-22T00:38:31.178Z,72.47
2022-10-22T00:40:58.964Z,72.74
2022-10-22T00:43:28.142Z,72.47
2022-10-22T00:45:55.678Z,72.51
2022-10-22T00:48:32.509Z,72.77
2022-10-22T00:51:12.062Z,72.60
2022-10-22T00:53:47.283Z,72.71
2022-10-22T00:56:15.730Z,72.52
2022-10-22T00:58:50.520Z,72.70
2022-10-22T01:01:21.919Z,72.65
2022-10-22T01:03:51.284Z,72.68
2022-10-22T01:06:29.719Z,73.17
2022-10-22T01:09:17.633Z,72.66
2022-10-22T01:12:00.060Z,72.52
2022-10-22T01:14:39.623Z,72.61
2022-10-22T01:17:14.064Z,72.67
2022-10-22T01:19:59.574Z,72.67
2022-10-22T01:22:36.247Z,72.59
2022-10-22T01:25:28.014Z,72.68
2022-10-22T01:28:10.464Z,72.50
2022-10-22T01:30:39.625Z,72.96
2022-10-22T01:33:08.908Z,73.15
2022-10-22T01:35:41.939Z,73.21
2022-10-22T01:38:14.474Z,73.49
2022-10-22T01:40:42.900Z,73.47
2022-10-22T01:43:11.805Z,73.57
2022-10-22T01:45:47.545Z,73.80
2022-10-22T01:48:51.800Z,73.55
2022-10-22T01:51:39.142Z,74.02
2022-10-22T01:54:25.324Z,73.38
2022-10-22T01:57:47.200Z,72.97
2022-10-22T02:00:17.628Z,73.57
2022-10-22T02:03:06.094Z,73.31
2022-10-22T02:05:43.579Z,73.24
2022-10-22T02:08:22.684Z,73.36
2022-10-22T02:10:51.654Z,73.24
2022-10-22T02:13:24.744Z,73.57
2022-10-22T02:15:53.472Z,73.44
2022-10-22T02:18:25.796Z,73.70
2022-10-22T02:20:54.056Z,73.45
2022-10-22T02:23:22.246Z,73.79
2022-10-22T02:26:00.596Z,73.39
2022-10-22T02:28:46.918Z,73.53
2022-10-22T02:31:19.876Z,73.52
2022-10-22T02:33:51.869Z,73.89
2022-10-22T02:36:21.174Z,73.89
2022-10-22T02:38:51.733Z,73.71
2022-10-22T02:41:20.422Z,73.84
2022-10-22T02:43:54.847Z,73.97
2022-10-22T02:46:25.404Z,73.77
2022-10-22T02:48:52.624Z,73.64
2022-10-22T02:51:20.090Z,73.85
2022-10-22T02:53:49.741Z,74.26
2022-10-22T02:56:17.459Z,73.48
2022-10-22T02:58:44.534Z,73.33
2022-10-22T03:01:15.284Z,73.16
2022-10-22T03:03:43.380Z,73.00
2022-10-22T03:06:10.778Z,73.10
2022-10-22T03:08:37.791Z,73.15
2022-10-22T03:11:05.272Z,72.62
2022-10-22T03:13:32.901Z,72.59
2022-10-22T03:16:01.139Z,72.75
2022-10-22T03:18:28.348Z,72.45
2022-10-22T03:21:08.151Z,72.44
2022-10-22T03:23:36.127Z,72.26
2022-10-22T03:26:06.698Z,72.38
2022-10-22T03:28:36.298Z,72.24
2022-10-22T03:31:03.966Z,72.63
2022-10-22T03:33:30.973Z,72.96
2022-10-22T03:36:00.520Z,73.09
2022-10-22T03:38:32.217Z,73.22
2022-10-22T03:41:00.214Z,73.15
2022-10-22T03:43:27.671Z,73.51
2022-10-22T03:45:55.309Z,73.35
2022-10-22T03:48:22.327Z,73.35
2022-10-22T03:50:59.097Z,73.12
2022-10-22T03:53:29.044Z,73.13
2022-10-22T03:56:00.332Z,73.29
2022-10-22T03:58:27.682Z,73.43
2022-10-22T04:00:57.812Z,73.19
2022-10-22T04:03:26.040Z,73.29
2022-10-22T04:05:56.796Z,73.05
2022-10-22T04:14:02.367Z,73.45
2022-10-22T04:16:33.166Z,73.32
2022-10-22T04:27:53.165Z,72.12
2022-10-22T04:30:20.909Z,72.00
2022-10-22T04:32:47.934Z,71.80
2022-10-22T04:35:17.882Z,71.84
2022-10-22T04:37:45.415Z,71.51
2022-10-22T04:40:13.275Z,71.52
2022-10-22T04:42:40.536Z,71.45
2022-10-22T04:45:12.547Z,71.50
2022-10-22T04:50:35.900Z,70.98
2022-10-22T04:53:04.319Z,71.12
2022-10-22T04:57:58.765Z,70.47
2022-10-22T05:00:28.871Z,70.63
2022-10-22T05:02:56.247Z,70.64
2022-10-22T05:05:23.460Z,70.40
2022-10-22T05:07:52.275Z,70.65
2022-10-22T05:10:19.286Z,70.76
2022-10-22T05:12:51.867Z,70.40
2022-10-22T05:15:18.875Z,70.51
2022-10-22T05:17:46.161Z,70.24
2022-10-22T05:20:13.409Z,70.40
2022-10-22T05:29:33.636Z,70.26
2022-10-22T05:46:12.697Z,69.83
2022-10-22T05:48:42.447Z,69.33
2022-10-22T05:59:19.747Z,69.11
2022-10-22T06:01:48.164Z,68.90
2022-10-22T06:04:16.239Z,68.49
2022-10-22T06:06:51.400Z,68.51
2022-10-22T06:09:25.265Z,68.26
2022-10-22T06:11:56.217Z,67.98
2022-10-22T06:14:46.189Z,68.40
2022-10-22T06:17:16.583Z,68.10
2022-10-22T06:19:43.636Z,68.26
2022-10-22T06:22:11.129Z,67.77
2022-10-22T06:24:40.484Z,67.44
2022-10-22T06:29:52.387Z,67.18
2022-10-22T06:32:19.747Z,67.34
2022-10-22T06:37:31.869Z,66.85
2022-10-22T06:39:58.936Z,66.68
2022-10-22T06:42:29.732Z,66.37
2022-10-22T06:47:34.507Z,66.12
2022-10-22T06:50:01.552Z,66.14
2022-10-22T06:52:28.992Z,66.26
2022-10-22T06:54:56.032Z,66.21
2022-10-22T06:57:23.378Z,65.84
2022-10-22T06:59:50.337Z,65.74
2022-10-22T07:02:17.650Z,65.63
2022-10-22T07:04:44.732Z,65.18
2022-10-22T07:07:12.526Z,64.84
2022-10-22T07:09:47.750Z,65.26
2022-10-22T07:12:17.884Z,65.19
2022-10-22T07:14:46.129Z,64.44
2022-10-22T07:17:13.769Z,64.81
2022-10-22T07:19:42.253Z,63.93
2022-10-22T07:25:01.559Z,63.85
2022-10-22T07:27:33.576Z,63.64
2022-10-22T07:30:01.820Z,63.58
2022-10-22T07:32:31.385Z,62.78
2022-10-22T07:35:00.653Z,63.25
2022-10-22T07:37:28.387Z,62.96
2022-10-22T07:40:01.482Z,62.95
2022-10-22T07:42:46.267Z,62.50
2022-10-22T07:45:31.114Z,62.16
2022-10-22T07:48:00.787Z,61.75
2022-10-22T07:50:27.952Z,61.07
2022-10-22T07:53:10.549Z,61.00
2022-10-22T07:55:40.277Z,60.73
2022-10-22T07:58:07.279Z,60.66
2022-10-22T08:00:34.817Z,60.58
2022-10-22T08:03:05.841Z,60.39
2022-10-22T08:05:33.555Z,60.34
2022-10-22T08:10:47.059Z,59.89
2022-10-22T08:13:14.974Z,59.54
2022-10-22T08:15:47.496Z,58.99
2022-10-22T08:21:03.904Z,58.50
2022-10-22T08:23:31.108Z,58.20
2022-10-22T08:25:58.615Z,58.50
2022-10-22T08:28:31.088Z,58.88
2022-10-22T08:30:58.818Z,58.67
2022-10-22T08:33:27.080Z,58.65
2022-10-22T08:36:02.574Z,58.03
2022-10-22T08:38:31.471Z,57.61
2022-10-22T08:41:20.588Z,57.39
2022-10-22T08:43:58.914Z,57.52
2022-10-22T08:46:47.689Z,57.57
2022-10-22T08:52:57.556Z,56.19
2022-10-22T08:55:28.166Z,56.17
2022-10-22T08:58:18.805Z,55.97
2022-10-22T09:01:45.153Z,55.72
2022-10-22T09:04:25.608Z,55.14
2022-10-22T09:06:55.476Z,54.50
2022-10-22T09:09:27.911Z,54.00
2022-10-22T09:11:58.159Z,52.93
2022-10-22T09:14:26.969Z,52.65
2022-10-22T09:17:06.388Z,52.19
2022-10-22T09:19:55.863Z,51.91
2022-10-22T09:22:40.641Z,50.68
2022-10-22T09:25:42.915Z,48.99
2022-10-22T09:28:13.105Z,48.48
2022-10-22T09:30:41.834Z,49.26
2022-10-22T09:36:42.938Z,49.71
2022-10-22T09:39:35.389Z,49.47
2022-10-22T09:42:03.196Z,50.30
2022-10-22T09:44:35.755Z,50.14
2022-10-22T09:47:37.346Z,50.73
2022-10-22T09:50:20.661Z,50.43
2022-10-22T09:53:14.835Z,50.00
2022-10-22T09:55:43.831Z,50.64
2022-10-22T10:01:48.023Z,50.82
2022-10-22T10:04:34.737Z,50.33
2022-10-22T10:07:02.502Z,50.72
2022-10-22T10:09:35.539Z,50.95
2022-10-22T10:12:38.828Z,51.25
2022-10-22T10:15:30.013Z,50.84
2022-10-22T10:18:11.996Z,50.68
2022-10-22T10:21:08.530Z,50.82
2022-10-22T10:24:14.926Z,50.05
2022-10-22T10:27:02.592Z,49.74
2022-10-22T10:29:57.638Z,50.30
2022-10-22T10:33:01.625Z,50.57
2022-10-22T10:36:04.712Z,50.40
2022-10-22T10:42:19.345Z,49.87
2022-10-22T10:45:05.018Z,49.26
2022-10-22T10:48:02.456Z,49.04
2022-10-22T10:50:35.348Z,49.33
2022-10-22T10:53:23.774Z,48.90
2022-10-22T10:56:25.293Z,48.21
2022-10-22T10:59:12.630Z,48.11
2022-10-22T11:01:42.539Z,47.13
2022-10-22T11:04:31.072Z,46.92
2022-10-22T11:07:11.042Z,46.67
2022-10-22T11:09:47.672Z,47.23
2022-10-22T11:12:24.018Z,47.73
2022-10-22T11:15:09.421Z,47.25
2022-10-22T11:17:41.619Z,47.47
2022-10-22T11:20:28.644Z,46.96
2022-10-22T11:23:23.056Z,46.85
2022-10-22T11:25:51.679Z,46.63
2022-10-22T11:28:28.521Z,46.62
2022-10-22T11:31:04.884Z,45.82
2022-10-22T11:33:44.594Z,46.20
2022-10-22T11:36:16.238Z,45.80
2022-10-22T11:38:43.455Z,46.13
2022-10-22T11:41:14.448Z,45.18
2022-10-22T11:44:26.247Z,44.33
2022-10-22T11:46:53.415Z,44.66
2022-10-22T11:49:41.500Z,43.99
2022-10-22T11:52:31.607Z,44.07
2022-10-22T11:55:02.730Z,44.67
2022-10-22T11:57:38.381Z,44.72
2022-10-22T12:03:43.981Z,45.34
2022-10-22T12:06:14.499Z,45.27
2022-10-22T12:08:49.495Z,45.03
2022-10-22T12:11:36.431Z,45.34
2022-10-22T12:14:23.451Z,44.77
2022-10-22T12:17:00.051Z,44.38
2022-10-22T12:19:44.504Z,44.18
2022-10-22T12:26:13.149Z,44.70
2022-10-22T12:32:19.934Z,45.04
2022-10-22T12:37:20.161Z,45.63
2022-10-22T12:39:48.532Z,45.17
2022-10-22T12:42:25.341Z,45.17
2022-10-22T12:45:11.621Z,44.86
2022-10-22T12:53:32.384Z,46.17
2022-10-22T12:56:17.678Z,46.03
2022-10-22T12:59:01.818Z,45.94
2022-10-22T13:01:37.840Z,46.24
2022-10-22T13:04:25.926Z,45.93
2022-10-22T13:10:02.849Z,45.89
2022-10-22T13:12:45.397Z,46.04
2022-10-22T13:15:35.484Z,45.29
2022-10-22T13:18:22.903Z,45.54
2022-10-22T13:21:03.741Z,45.79
2022-10-22T13:23:41.869Z,45.45
2022-10-22T13:26:17.092Z,45.35
2022-10-22T13:28:54.268Z,44.86
2022-10-22T13:31:28.671Z,44.95
2022-10-22T13:33:58.779Z,45.34
2022-10-22T13:36:27.613Z,45.37
2022-10-22T13:41:54.477Z,45.40
2022-10-22T13:47:41.529Z,45.83
2022-10-22T13:56:32.496Z,45.63
2022-10-22T13:59:22.821Z,45.15
2022-10-22T14:04:45.957Z,45.45
2022-10-22T14:07:18.739Z,45.99
2022-10-22T14:12:52.300Z,46.08
2022-10-22T14:15:25.418Z,46.11
2022-10-22T14:17:56.825Z,46.19
2022-10-22T14:20:49.787Z,46.56
2022-10-22T14:23:23.481Z,46.60
2022-10-22T14:25:53.724Z,46.86
2022-10-22T14:28:23.287Z,47.13
2022-10-22T14:39:19.840Z,47.89
2022-10-22T14:41:48.073Z,47.70
2022-10-22T14:44:18.591Z,48.45
2022-10-22T14:46:59.215Z,48.50
2022-10-22T14:49:36.461Z,48.45
2022-10-22T14:52:14.846Z,48.88
2022-10-22T14:54:53.095Z,48.75
2022-10-22T15:00:10.691Z,49.26
2022-10-22T15:02:40.045Z,49.24
2022-10-22T15:05:08.913Z,50.22
2022-10-22T15:07:45.166Z,49.80
2022-10-22T15:10:18.322Z,50.01
2022-10-22T15:12:50.056Z,50.55
2022-10-22T15:15:22.600Z,50.85
2022-10-22T15:18:00.524Z,51.44
2022-10-22T15:20:28.003Z,51.83
2022-10-22T15:22:58.219Z,51.78
2022-10-22T15:25:28.675Z,51.81
2022-10-22T15:28:00.812Z,52.24
2022-10-22T15:30:36.384Z,52.87
2022-10-22T15:33:03.430Z,53.39
2022-10-22T15:35:30.718Z,53.37
2022-10-22T15:37:57.952Z,53.70
2022-10-22T15:40:25.401Z,54.19
2022-10-22T15:42:52.493Z,54.24
2022-10-22T15:45:22.043Z,54.87
2022-10-22T15:47:49.663Z,54.82
2022-10-22T15:50:17.187Z,54.81
2022-10-22T15:52:44.333Z,54.91
2022-10-22T15:57:42.145Z,55.10
2022-10-22T16:00:14.617Z,54.95
2022-10-22T16:02:41.784Z,54.97
2022-10-22T16:05:09.807Z,55.42
2022-10-22T16:07:40.132Z,56.04
2022-10-22T16:10:08.082Z,56.28
2022-10-22T16:12:40.986Z,56.63
2022-10-22T16:15:11.675Z,57.23
2022-10-22T16:17:48.275Z,56.97
2022-10-22T16:20:21.003Z,57.46
2022-10-22T16:22:57.060Z,58.05
2022-10-22T16:28:24.200Z,58.21
2022-10-22T16:34:19.242Z,58.73
2022-10-22T16:39:41.670Z,59.04
2022-10-22T16:42:14.749Z,59.37
2022-10-22T16:44:46.131Z,60.11
2022-10-22T16:47:15.026Z,60.31
2022-10-22T16:49:42.393Z,60.61
2022-10-22T16:52:10.976Z,60.88
2022-10-22T16:54:38.096Z,61.02
2022-10-22T16:57:05.953Z,60.88
2022-10-22T16:59:41.795Z,61.27
2022-10-22T17:02:11.776Z,61.33
2022-10-22T17:04:39.198Z,61.37
2022-10-22T17:07:14.526Z,61.62
2022-10-22T17:09:42.470Z,61.74
2022-10-22T17:12:10.262Z,61.73
2022-10-22T17:14:40.083Z,62.00
2022-10-22T17:17:30.450Z,62.25
2022-10-22T17:20:00.131Z,62.39
2022-10-22T17:22:27.411Z,61.98
2022-10-22T17:25:20.316Z,62.82
2022-10-22T17:27:52.159Z,63.11
2022-10-22T17:30:23.510Z,63.20
2022-10-22T17:32:54.258Z,64.40
2022-10-22T17:35:21.648Z,63.97
2022-10-22T17:37:49.313Z,64.56
2022-10-22T17:40:31.153Z,65.00
2022-10-22T17:43:03.775Z,64.60
2022-10-22T17:45:32.362Z,65.36
2022-10-22T17:47:59.664Z,65.02
2022-10-22T17:50:36.010Z,65.13
2022-10-22T17:53:04.462Z,65.17
2022-10-22T17:55:35.237Z,65.49
2022-10-22T17:58:07.550Z,65.91
2022-10-22T18:00:38.357Z,66.04
2022-10-22T18:03:07.060Z,65.75
2022-10-22T18:05:34.160Z,66.20
2022-10-22T18:08:05.622Z,66.39
2022-10-22T18:10:39.913Z,66.59
2022-10-22T18:13:23.554Z,66.30
2022-10-22T18:15:56.167Z,66.89
2022-10-22T18:18:24.887Z,67.09
2022-10-22T18:20:55.571Z,67.19
2022-10-22T18:23:22.672Z,67.02
2022-10-22T18:25:50.079Z,66.95
2022-10-22T18:28:19.311Z,66.78
2022-10-22T18:30:49.425Z,66.75
2022-10-22T18:36:11.123Z,66.88
2022-10-22T18:38:40.970Z,66.65
2022-10-22T18:41:15.510Z,67.18
2022-10-22T18:43:42.609Z,67.14
2022-10-22T18:46:10.568Z,67.20
2022-10-22T18:48:37.629Z,67.46
2022-10-22T18:51:09.760Z,67.63
2022-10-22T18:53:38.218Z,68.08
2022-10-22T18:56:07.873Z,67.83
2022-10-22T18:58:43.224Z,68.44
2022-10-22T19:01:29.483Z,68.19
2022-10-22T19:03:57.456Z,68.07
2022-10-22T19:06:34.497Z,68.05
2022-10-22T19:09:04.756Z,68.89
2022-10-22T19:11:32.463Z,68.52
2022-10-22T19:14:02.654Z,68.60
2022-10-22T19:16:30.100Z,68.71
2022-10-22T19:19:05.473Z,68.42
2022-10-22T19:21:41.859Z,68.67
2022-10-22T19:24:17.536Z,68.32
2022-10-22T19:26:46.368Z,68.35
2022-10-22T19:29:20.060Z,68.84
2022-10-22T19:31:53.530Z,69.53
2022-10-22T19:34:21.314Z,69.61
2022-10-22T19:36:52.686Z,69.39
2022-10-22T19:39:22.701Z,69.31
2022-10-22T19:41:54.393Z,69.44
2022-10-22T19:44:23.926Z,69.55
2022-10-22T19:46:51.236Z,69.08
2022-10-22T19:49:26.619Z,69.19
2022-10-22T19:51:53.850Z,69.12
2022-10-22T19:54:21.941Z,69.02
2022-10-22T19:56:50.064Z,69.19
2022-10-22T19:59:17.949Z,69.78
2022-10-22T20:01:46.732Z,70.05
2022-10-22T20:04:16.287Z,69.72
2022-10-22T20:06:44.978Z,69.91
2022-10-22T20:12:23.655Z,70.24
2022-10-22T20:14:52.011Z,69.76
2022-10-22T20:17:19.951Z,70.04
2022-10-22T20:19:52.545Z,70.06
2022-10-22T20:22:23.002Z,70.47
2022-10-22T20:24:50.240Z,70.53
2022-10-22T20:27:19.746Z,70.01
2022-10-22T20:29:46.805Z,70.29
2022-10-22T20:32:14.262Z,70.15
2022-10-22T20:34:42.559Z,70.25
2022-10-22T20:37:10.189Z,70.33
2022-10-22T20:39:37.671Z,70.06
2022-10-22T20:42:07.693Z,70.69
2022-10-22T20:44:34.815Z,70.77
2022-10-22T20:47:02.113Z,71.14
2022-10-22T20:49:30.442Z,70.75
2022-10-22T20:51:57.830Z,71.17
2022-10-22T20:54:26.880Z,71.23
2022-10-22T20:56:54.650Z,71.08
2022-10-22T20:59:21.897Z,71.15
2022-10-22T21:01:53.168Z,71.47
2022-10-22T21:04:21.371Z,71.55
2022-10-22T21:06:50.440Z,71.03
2022-10-22T21:09:19.409Z,71.32
2022-10-22T21:11:51.478Z,70.85
2022-10-22T21:14:23.096Z,70.86
2022-10-22T21:16:52.292Z,71.08
2022-10-22T21:19:20.283Z,70.85
2022-10-22T21:21:48.372Z,70.61
2022-10-22T21:24:15.723Z,71.05
2022-10-22T21:26:43.379Z,71.15
2022-10-22T21:29:12.785Z,70.66
2022-10-22T21:31:43.482Z,70.84
2022-10-22T21:34:17.250Z,70.66
2022-10-22T21:36:45.086Z,70.63
2022-10-22T21:39:13.726Z,70.42
2022-10-22T21:41:41.292Z,70.30
2022-10-22T21:44:08.427Z,70.74
2022-10-22T21:46:35.731Z,70.49
2022-10-22T21:49:03.960Z,70.74
2022-10-22T21:51:33.303Z,71.13
2022-10-22T21:54:00.578Z,71.56
2022-10-22T21:56:33.223Z,71.28
2022-10-22T21:59:02.673Z,71.77
2022-10-22T22:01:30.522Z,71.50
2022-10-22T22:03:57.632Z,71.62
2022-10-22T22:06:29.512Z,71.81
2022-10-22T22:08:59.370Z,71.93
2022-10-22T22:11:28.186Z,71.69
2022-10-22T22:13:56.857Z,72.08
2022-10-22T22:16:28.770Z,71.84
2022-10-22T22:18:59.217Z,71.67
2022-10-22T22:21:26.666Z,71.99
2022-10-22T22:23:55.549Z,71.89
2022-10-22T22:26:28.609Z,71.72
2022-10-22T22:28:59.137Z,71.96
2022-10-22T22:31:32.279Z,71.65
2022-10-22T22:34:05.762Z,71.71
2022-10-22T22:36:35.988Z,71.34
2022-10-22T22:39:05.243Z,71.30
2022-10-22T22:41:32.893Z,71.62
2022-10-22T22:43:59.911Z,71.56
2022-10-22T22:46:27.200Z,71.74
2022-10-22T22:48:54.588Z,72.31
2022-10-22T22:51:22.906Z,72.90
2022-10-22T22:53:50.226Z,72.69
2022-10-22T22:56:23.466Z,72.88
2022-10-22T22:58:51.447Z,73.29
2022-10-22T23:01:29.592Z,73.84
2022-10-22T23:04:01.109Z,74.54
2022-10-22T23:06:31.829Z,73.79
2022-10-22T23:08:59.436Z,73.50
2022-10-22T23:11:27.856Z,73.59
2022-10-22T23:14:00.296Z,72.96
2022-10-22T23:16:32.932Z,73.25
2022-10-22T23:19:00.985Z,73.21
2022-10-22T23:21:34.119Z,72.98
2022-10-22T23:24:04.882Z,72.48
2022-10-22T23:26:40.319Z,72.30
2022-10-22T23:29:13.888Z,72.59
2022-10-22T23:31:41.886Z,72.68
2022-10-22T23:34:10.782Z,72.78
2022-10-22T23:36:39.178Z,72.81
2022-10-22T23:39:15.830Z,73.15
2022-10-22T23:41:43.555Z,73.26
2022-10-22T23:44:11.138Z,73.06
2022-10-22T23:46:38.735Z,72.97
2022-10-22T23:49:07.302Z,73.40
2022-10-22T23:51:34.644Z,73.28
2022-10-22T23:54:07.786Z,72.54
2022-10-22T23:56:35.899Z,72.60
2022-10-22T23:59:04.668Z,72.65
